sensor_id;sensor_type;location;lat;lon;timestamp;pressure;altitude;pressure_sealevel;temperature;humidity
9774;BME280;4926;42.670;23.316;2023-04-21T00:02:15;94153.19;;;12.07;72.81
9774;BME280;4926;42.670;23.316;2023-04-21T00:04:42;94159.13;;;12.04;72.50
9774;BME280;4926;42.670;23.316;2023-04-21T00:07:10;94149.56;;;12.03;72.33
9774;BME280;4926;42.670;23.316;2023-04-21T00:09:39;94148.91;;;11.98;72.62
9774;BME280;4926;42.670;23.316;2023-04-21T00:12:06;94142.94;;;12.01;72.70
9774;BME280;4926;42.670;23.316;2023-04-21T00:14:35;94142.91;;;11.92;72.31
9774;BME280;4926;42.670;23.316;2023-04-21T00:17:04;94145.88;;;11.91;72.30
9774;BME280;4926;42.670;23.316;2023-04-21T00:19:31;94149.44;;;11.86;72.45
9774;BME280;4926;42.670;23.316;2023-04-21T00:22:00;94145.38;;;11.89;72.76
9774;BME280;4926;42.670;23.316;2023-04-21T00:24:28;94146.06;;;11.94;72.60
9774;BME280;4926;42.670;23.316;2023-04-21T00:26:55;94148.53;;;11.91;72.51
9774;BME280;4926;42.670;23.316;2023-04-21T00:29:24;94154.38;;;11.93;71.96
9774;BME280;4926;42.670;23.316;2023-04-21T00:31:52;94146.19;;;11.89;71.98
9774;BME280;4926;42.670;23.316;2023-04-21T00:34:19;94151.75;;;11.79;72.31
9774;BME280;4926;42.670;23.316;2023-04-21T00:36:45;94150.38;;;11.82;72.15
9774;BME280;4926;42.670;23.316;2023-04-21T00:39:12;94152.09;;;11.86;71.85
9774;BME280;4926;42.670;23.316;2023-04-21T00:41:40;94152.09;;;11.86;71.58
9774;BME280;4926;42.670;23.316;2023-04-21T00:44:07;94160.22;;;11.81;72.05
9774;BME280;4926;42.670;23.316;2023-04-21T00:46:35;94135.19;;;11.69;71.51
9774;BME280;4926;42.670;23.316;2023-04-21T00:49:05;94148.50;;;11.82;71.52
9774;BME280;4926;42.670;23.316;2023-04-21T00:51:33;94151.75;;;11.79;71.36
9774;BME280;4926;42.670;23.316;2023-04-21T00:54:01;94140.50;;;11.82;71.18
9774;BME280;4926;42.670;23.316;2023-04-21T00:56:33;94134.78;;;11.75;71.34
9774;BME280;4926;42.670;23.316;2023-04-21T00:59:00;94138.53;;;11.74;71.70
9774;BME280;4926;42.670;23.316;2023-04-21T01:01:30;94143.88;;;11.74;71.48
9774;BME280;4926;42.670;23.316;2023-04-21T01:03:59;94129.47;;;11.75;71.30
9774;BME280;4926;42.670;23.316;2023-04-21T01:06:28;94144.91;;;11.65;71.27
9774;BME280;4926;42.670;23.316;2023-04-21T01:08:56;94137.47;;;11.75;71.00
9774;BME280;4926;42.670;23.316;2023-04-21T01:11:23;94138.53;;;11.74;71.22
9774;BME280;4926;42.670;23.316;2023-04-21T01:13:52;94133.03;;;11.71;70.91
9774;BME280;4926;42.670;23.316;2023-04-21T01:16:20;94135.38;;;11.72;71.29
9774;BME280;4926;42.670;23.316;2023-04-21T01:18:48;94135.19;;;11.69;71.24
9774;BME280;4926;42.670;23.316;2023-04-21T01:21:16;94135.88;;;11.74;71.19
9774;BME280;4926;42.670;23.316;2023-04-21T01:23:48;94134.78;;;11.75;71.03
9774;BME280;4926;42.670;23.316;2023-04-21T01:26:16;94133.06;;;11.79;70.86
9774;BME280;4926;42.670;23.316;2023-04-21T01:28:43;94136.97;;;11.73;70.99
9774;BME280;4926;42.670;23.316;2023-04-21T01:31:12;94136.13;;;11.64;71.31
9774;BME280;4926;42.670;23.316;2023-04-21T01:33:38;94137.19;;;11.63;71.63
9774;BME280;4926;42.670;23.316;2023-04-21T01:36:06;94122.78;;;11.64;71.57
9774;BME280;4926;42.670;23.316;2023-04-21T01:38:36;94131.97;;;11.58;71.72
9774;BME280;4926;42.670;23.316;2023-04-21T01:41:08;94132.09;;;11.53;72.33
9774;BME280;4926;42.670;23.316;2023-04-21T01:43:35;94130.69;;;11.56;72.22
9774;BME280;4926;42.670;23.316;2023-04-21T01:46:02;94128.22;;;11.59;71.79
9774;BME280;4926;42.670;23.316;2023-04-21T01:48:29;94139.28;;;11.66;71.96
9774;BME280;4926;42.670;23.316;2023-04-21T01:50:55;94124.53;;;11.69;71.56
9774;BME280;4926;42.670;23.316;2023-04-21T01:53:22;94125.94;;;11.66;71.62
9774;BME280;4926;42.670;23.316;2023-04-21T01:55:49;94129.78;;;11.60;71.92
9774;BME280;4926;42.670;23.316;2023-04-21T01:58:17;94127.13;;;11.60;71.95
9774;BME280;4926;42.670;23.316;2023-04-21T02:00:43;94120.72;;;11.61;72.04
9774;BME280;4926;42.670;23.316;2023-04-21T02:03:10;94127.03;;;11.65;71.87
9774;BME280;4926;42.670;23.316;2023-04-21T02:05:38;94124.56;;;11.55;72.07
9774;BME280;4926;42.670;23.316;2023-04-21T02:08:05;94128.94;;;11.51;72.10
9774;BME280;4926;42.670;23.316;2023-04-21T02:10:32;94127.97;;;11.47;72.00
9774;BME280;4926;42.670;23.316;2023-04-21T02:12:59;94127.50;;;11.45;72.40
9774;BME280;4926;42.670;23.316;2023-04-21T02:15:29;94125.81;;;11.49;72.36
9774;BME280;4926;42.670;23.316;2023-04-21T02:17:56;94120.88;;;11.43;72.14
9774;BME280;4926;42.670;23.316;2023-04-21T02:20:23;94121.19;;;11.41;72.64
9774;BME280;4926;42.670;23.316;2023-04-21T02:22:49;94122.28;;;11.40;72.81
9774;BME280;4926;42.670;23.316;2023-04-21T02:25:16;94130.38;;;11.35;73.06
9774;BME280;4926;42.670;23.316;2023-04-21T02:27:44;94127.59;;;11.40;72.99
9774;BME280;4926;42.670;23.316;2023-04-21T02:30:13;94124.09;;;11.31;73.30
9774;BME280;4926;42.670;23.316;2023-04-21T02:32:42;94135.34;;;11.28;74.05
9774;BME280;4926;42.670;23.316;2023-04-21T02:35:08;94131.03;;;11.18;74.63
9774;BME280;4926;42.670;23.316;2023-04-21T02:37:35;94123.53;;;11.20;74.80
9774;BME280;4926;42.670;23.316;2023-04-21T02:40:02;94130.59;;;11.25;74.75
9774;BME280;4926;42.670;23.316;2023-04-21T02:42:31;94132.19;;;11.26;75.08
9774;BME280;4926;42.670;23.316;2023-04-21T02:44:58;94133.94;;;11.31;74.74
9774;BME280;4926;42.670;23.316;2023-04-21T02:47:27;94115.22;;;11.22;75.04
9774;BME280;4926;42.670;23.316;2023-04-21T02:49:55;94128.44;;;11.27;75.44
9774;BME280;4926;42.670;23.316;2023-04-21T02:52:25;94128.78;;;11.34;74.91
9774;BME280;4926;42.670;23.316;2023-04-21T02:54:52;94137.91;;;11.33;75.72
9774;BME280;4926;42.670;23.316;2023-04-21T02:57:19;94141.22;;;11.39;74.90
9774;BME280;4926;42.670;23.316;2023-04-21T02:59:45;94132.03;;;11.45;74.98
9774;BME280;4926;42.670;23.316;2023-04-21T03:02:12;94141.31;;;11.47;75.00
9774;BME280;4926;42.670;23.316;2023-04-21T03:04:39;94136.16;;;11.51;74.75
9774;BME280;4926;42.670;23.316;2023-04-21T03:07:12;94129.91;;;11.55;74.79
9774;BME280;4926;42.670;23.316;2023-04-21T03:09:39;94133.19;;;11.52;74.67
9774;BME280;4926;42.670;23.316;2023-04-21T03:12:06;94134.44;;;11.55;74.75
9774;BME280;4926;42.670;23.316;2023-04-21T03:14:32;94137.00;;;11.60;74.35
9774;BME280;4926;42.670;23.316;2023-04-21T03:16:59;94138.03;;;11.50;74.65
9774;BME280;4926;42.670;23.316;2023-04-21T03:19:26;94133.31;;;11.47;74.53
9774;BME280;4926;42.670;23.316;2023-04-21T03:21:58;94129.84;;;11.47;74.87
9774;BME280;4926;42.670;23.316;2023-04-21T03:24:26;94128.94;;;11.51;74.97
9774;BME280;4926;42.670;23.316;2023-04-21T03:26:53;94130.41;;;11.57;74.57
9774;BME280;4926;42.670;23.316;2023-04-21T03:29:21;94131.13;;;11.49;74.54
9774;BME280;4926;42.670;23.316;2023-04-21T03:31:50;94140.38;;;11.52;74.74
9774;BME280;4926;42.670;23.316;2023-04-21T03:34:18;94132.56;;;11.55;74.77
9774;BME280;4926;42.670;23.316;2023-04-21T03:36:45;94136.13;;;11.64;74.26
9774;BME280;4926;42.670;23.316;2023-04-21T03:39:14;94140.94;;;11.62;74.19
9774;BME280;4926;42.670;23.316;2023-04-21T03:41:42;94148.84;;;11.67;73.78
9774;BME280;4926;42.670;23.316;2023-04-21T03:44:09;94139.59;;;11.65;73.54
9774;BME280;4926;42.670;23.316;2023-04-21T03:46:36;94134.44;;;11.55;73.63
9774;BME280;4926;42.670;23.316;2023-04-21T03:49:02;94144.13;;;11.64;73.51
9774;BME280;4926;42.670;23.316;2023-04-21T03:51:29;94150.03;;;11.61;73.51
9774;BME280;4926;42.670;23.316;2023-04-21T03:53:57;94154.09;;;11.59;73.71
9774;BME280;4926;42.670;23.316;2023-04-21T03:56:23;94155.88;;;11.50;74.48
9774;BME280;4926;42.670;23.316;2023-04-21T03:58:51;94163.31;;;11.53;74.70
9774;BME280;4926;42.670;23.316;2023-04-21T04:01:18;94160.91;;;11.51;74.76
9774;BME280;4926;42.670;23.316;2023-04-21T04:03:46;94156.19;;;11.48;74.78
9774;BME280;4926;42.670;23.316;2023-04-21T04:06:15;94155.19;;;11.58;74.64
9774;BME280;4926;42.670;23.316;2023-04-21T04:08:41;94163.38;;;11.61;74.52
9774;BME280;4926;42.670;23.316;2023-04-21T04:11:08;94165.31;;;11.69;73.75
9774;BME280;4926;42.670;23.316;2023-04-21T04:13:35;94163.75;;;11.68;74.15
9774;BME280;4926;42.670;23.316;2023-04-21T04:16:04;94175.09;;;11.74;73.88
9774;BME280;4926;42.670;23.316;2023-04-21T04:18:30;94171.34;;;11.75;73.85
9774;BME280;4926;42.670;23.316;2023-04-21T04:20:57;94174.00;;;11.75;73.50
9774;BME280;4926;42.670;23.316;2023-04-21T04:23:24;94179.50;;;11.78;73.60
9774;BME280;4926;42.670;23.316;2023-04-21T04:25:54;94186.72;;;11.78;73.28
9774;BME280;4926;42.670;23.316;2023-04-21T04:28:21;94185.34;;;11.80;73.22
9774;BME280;4926;42.670;23.316;2023-04-21T04:30:48;94176.84;;;11.78;73.57
9774;BME280;4926;42.670;23.316;2023-04-21T04:33:16;94173.31;;;11.69;73.41
9774;BME280;4926;42.670;23.316;2023-04-21T04:35:43;94192.06;;;11.78;73.76
9774;BME280;4926;42.670;23.316;2023-04-21T04:38:09;94185.34;;;11.80;73.58
9774;BME280;4926;42.670;23.316;2023-04-21T04:40:37;94182.91;;;11.92;73.55
9774;BME280;4926;42.670;23.316;2023-04-21T04:43:03;94192.66;;;11.97;73.15
9774;BME280;4926;42.670;23.316;2023-04-21T04:45:30;94194.91;;;12.03;72.93
9774;BME280;4926;42.670;23.316;2023-04-21T04:47:57;94186.78;;;12.08;72.76
9774;BME280;4926;42.670;23.316;2023-04-21T04:50:25;94197.28;;;12.05;72.91
9774;BME280;4926;42.670;23.316;2023-04-21T04:52:52;94193.06;;;12.12;72.73
9774;BME280;4926;42.670;23.316;2023-04-21T04:55:20;94190.31;;;12.17;72.75
9774;BME280;4926;42.670;23.316;2023-04-21T04:57:47;94179.63;;;12.17;72.04
9774;BME280;4926;42.670;23.316;2023-04-21T05:00:17;94190.22;;;12.31;72.01
9774;BME280;4926;42.670;23.316;2023-04-21T05:02:43;94196.34;;;12.31;71.70
9774;BME280;4926;42.670;23.316;2023-04-21T05:05:13;94191.94;;;12.35;71.59
9774;BME280;4926;42.670;23.316;2023-04-21T05:07:41;94183.81;;;12.41;71.18
9774;BME280;4926;42.670;23.316;2023-04-21T05:10:08;94192.94;;;12.40;71.20
9774;BME280;4926;42.670;23.316;2023-04-21T05:12:34;94186.78;;;12.39;71.66
9774;BME280;4926;42.670;23.316;2023-04-21T05:15:05;94189.28;;;12.35;71.86
9774;BME280;4926;42.670;23.316;2023-04-21T05:17:32;94192.56;;;12.32;71.95
9774;BME280;4926;42.670;23.316;2023-04-21T05:19:59;94195.47;;;12.45;72.03
9774;BME280;4926;42.670;23.316;2023-04-21T05:22:26;94200.53;;;12.55;71.25
9774;BME280;4926;42.670;23.316;2023-04-21T05:24:54;94193.34;;;12.64;71.19
9774;BME280;4926;42.670;23.316;2023-04-21T05:27:22;94195.28;;;12.72;71.01
9774;BME280;4926;42.670;23.316;2023-04-21T05:29:49;94191.16;;;12.66;71.25
9774;BME280;4926;42.670;23.316;2023-04-21T05:32:16;94195.88;;;12.69;71.00
9774;BME280;4926;42.670;23.316;2023-04-21T05:34:42;94191.19;;;12.74;70.89
9774;BME280;4926;42.670;23.316;2023-04-21T05:37:12;94192.47;;;12.77;70.70
9774;BME280;4926;42.670;23.316;2023-04-21T05:39:39;94200.00;;;12.75;71.08
9774;BME280;4926;42.670;23.316;2023-04-21T05:42:12;94194.50;;;12.71;71.15
9774;BME280;4926;42.670;23.316;2023-04-21T05:44:42;94198.06;;;12.67;71.96
9774;BME280;4926;42.670;23.316;2023-04-21T05:47:12;94197.19;;;12.80;71.74
9774;BME280;4926;42.670;23.316;2023-04-21T05:49:39;94196.94;;;12.98;71.02
9774;BME280;4926;42.670;23.316;2023-04-21T05:52:08;94193.84;;;13.05;70.92
9774;BME280;4926;42.670;23.316;2023-04-21T05:54:34;94189.19;;;13.19;70.73
9774;BME280;4926;42.670;23.316;2023-04-21T05:57:04;94199.72;;;13.32;70.00
9774;BME280;4926;42.670;23.316;2023-04-21T05:59:34;94188.25;;;13.58;68.77
9774;BME280;4926;42.670;23.316;2023-04-21T06:02:01;94182.00;;;13.62;68.20
9774;BME280;4926;42.670;23.316;2023-04-21T06:04:30;94171.78;;;13.64;68.22
9774;BME280;4926;42.670;23.316;2023-04-21T06:06:57;94173.97;;;13.62;68.63
9774;BME280;4926;42.670;23.316;2023-04-21T06:09:26;94172.41;;;13.70;68.38
9774;BME280;4926;42.670;23.316;2023-04-21T06:11:53;94183.53;;;13.63;68.17
9774;BME280;4926;42.670;23.316;2023-04-21T06:14:22;94174.28;;;13.69;68.54
9774;BME280;4926;42.670;23.316;2023-04-21T06:16:51;94176.31;;;13.72;68.41
9774;BME280;4926;42.670;23.316;2023-04-21T06:19:17;94173.31;;;13.65;68.45
9774;BME280;4926;42.670;23.316;2023-04-21T06:21:44;94180.44;;;13.78;68.95
9774;BME280;4926;42.670;23.316;2023-04-21T06:24:11;94184.34;;;13.81;68.42
9774;BME280;4926;42.670;23.316;2023-04-21T06:26:37;94183.88;;;13.79;68.51
9774;BME280;4926;42.670;23.316;2023-04-21T06:29:04;94183.41;;;13.94;68.55
9774;BME280;4926;42.670;23.316;2023-04-21T06:31:31;94184.63;;;14.05;67.67
9774;BME280;4926;42.670;23.316;2023-04-21T06:33:59;94181.34;;;13.99;68.00
9774;BME280;4926;42.670;23.316;2023-04-21T06:36:26;94167.84;;;13.87;68.20
9774;BME280;4926;42.670;23.316;2023-04-21T06:38:53;94169.09;;;13.81;68.47
9774;BME280;4926;42.670;23.316;2023-04-21T06:41:19;94169.53;;;13.92;68.63
9774;BME280;4926;42.670;23.316;2023-04-21T06:43:49;94170.31;;;14.09;67.67
9774;BME280;4926;42.670;23.316;2023-04-21T06:46:19;94164.44;;;14.24;66.60
9774;BME280;4926;42.670;23.316;2023-04-21T06:48:45;94157.25;;;14.08;67.52
9774;BME280;4926;42.670;23.316;2023-04-21T06:51:13;94162.41;;;14.21;67.74
9774;BME280;4926;42.670;23.316;2023-04-21T06:53:40;94165.41;;;14.20;67.75
9774;BME280;4926;42.670;23.316;2023-04-21T06:56:07;94158.94;;;14.29;67.23
9774;BME280;4926;42.670;23.316;2023-04-21T06:58:33;94151.09;;;14.71;66.02
9774;BME280;4926;42.670;23.316;2023-04-21T07:01:00;94137.06;;;15.03;64.65
9774;BME280;4926;42.670;23.316;2023-04-21T07:03:27;94134.56;;;15.27;63.69
9774;BME280;4926;42.670;23.316;2023-04-21T07:05:54;94133.72;;;15.35;62.57
9774;BME280;4926;42.670;23.316;2023-04-21T07:08:22;94142.84;;;15.42;63.07
9774;BME280;4926;42.670;23.316;2023-04-21T07:10:50;94129.69;;;15.70;61.91
9774;BME280;4926;42.670;23.316;2023-04-21T07:13:16;94125.47;;;16.02;61.18
9774;BME280;4926;42.670;23.316;2023-04-21T07:15:48;94096.88;;;15.85;60.26
9774;BME280;4926;42.670;23.316;2023-04-21T07:18:15;94116.28;;;16.35;60.05
9774;BME280;4926;42.670;23.316;2023-04-21T07:20:46;94113.88;;;16.54;58.87
9774;BME280;4926;42.670;23.316;2023-04-21T07:23:13;94111.63;;;16.68;59.30
9774;BME280;4926;42.670;23.316;2023-04-21T07:25:44;94115.34;;;17.00;58.60
9774;BME280;4926;42.670;23.316;2023-04-21T07:28:11;94105.44;;;17.40;57.02
9774;BME280;4926;42.670;23.316;2023-04-21T07:30:42;94100.25;;;17.87;55.52
9774;BME280;4926;42.670;23.316;2023-04-21T07:33:08;94101.91;;;17.92;54.70
9774;BME280;4926;42.670;23.316;2023-04-21T07:35:35;94090.88;;;17.69;54.69
9774;BME280;4926;42.670;23.316;2023-04-21T07:38:02;94093.97;;;17.43;54.98
9774;BME280;4926;42.670;23.316;2023-04-21T07:40:28;94099.75;;;17.18;55.72
9774;BME280;4926;42.670;23.316;2023-04-21T07:43:00;94096.41;;;16.85;56.51
9774;BME280;4926;42.670;23.316;2023-04-21T07:45:27;94111.06;;;16.63;57.61
9774;BME280;4926;42.670;23.316;2023-04-21T07:47:53;94107.81;;;16.57;57.87
9774;BME280;4926;42.670;23.316;2023-04-21T07:50:20;94118.09;;;16.55;57.73
9774;BME280;4926;42.670;23.316;2023-04-21T07:52:47;94108.63;;;16.82;57.09
9774;BME280;4926;42.670;23.316;2023-04-21T07:55:13;94106.69;;;17.19;55.91
9774;BME280;4926;42.670;23.316;2023-04-21T07:57:40;94100.25;;;17.59;55.41
9774;BME280;4926;42.670;23.316;2023-04-21T08:00:10;94091.25;;;18.38;53.45
9774;BME280;4926;42.670;23.316;2023-04-21T08:02:36;94086.81;;;18.46;51.85
9774;BME280;4926;42.670;23.316;2023-04-21T08:05:06;94099.34;;;18.38;51.82
9774;BME280;4926;42.670;23.316;2023-04-21T08:07:33;94095.00;;;18.06;52.60
9774;BME280;4926;42.670;23.316;2023-04-21T08:10:01;94086.34;;;18.28;52.13
9774;BME280;4926;42.670;23.316;2023-04-21T08:12:30;94093.81;;;18.47;52.18
9774;BME280;4926;42.670;23.316;2023-04-21T08:14:57;94071.06;;;19.10;50.94
9774;BME280;4926;42.670;23.316;2023-04-21T08:17:29;94062.25;;;19.48;49.24
9774;BME280;4926;42.670;23.316;2023-04-21T08:19:55;94055.72;;;19.14;49.48
9774;BME280;4926;42.670;23.316;2023-04-21T08:22:22;94067.72;;;19.17;50.18
9774;BME280;4926;42.670;23.316;2023-04-21T08:24:49;94058.69;;;19.44;49.47
9774;BME280;4926;42.670;23.316;2023-04-21T08:27:15;94053.13;;;19.52;49.02
9774;BME280;4926;42.670;23.316;2023-04-21T08:29:42;94055.38;;;19.31;49.50
9774;BME280;4926;42.670;23.316;2023-04-21T08:32:09;94058.44;;;19.49;49.09
9774;BME280;4926;42.670;23.316;2023-04-21T08:34:37;94058.38;;;19.30;49.23
9774;BME280;4926;42.670;23.316;2023-04-21T08:37:06;94051.78;;;18.77;49.74
9774;BME280;4926;42.670;23.316;2023-04-21T08:39:33;94062.31;;;18.66;50.16
9774;BME280;4926;42.670;23.316;2023-04-21T08:42:01;94065.19;;;18.42;50.86
9774;BME280;4926;42.670;23.316;2023-04-21T08:44:28;94084.34;;;18.25;51.69
9774;BME280;4926;42.670;23.316;2023-04-21T08:46:55;94059.97;;;18.49;50.71
9774;BME280;4926;42.670;23.316;2023-04-21T08:49:28;94061.94;;;18.37;50.41
9774;BME280;4926;42.670;23.316;2023-04-21T08:51:58;94072.75;;;18.09;51.27
9774;BME280;4926;42.670;23.316;2023-04-21T08:54:26;94077.09;;;17.98;51.67
9774;BME280;4926;42.670;23.316;2023-04-21T08:56:52;94067.38;;;18.25;51.37
9774;BME280;4926;42.670;23.316;2023-04-21T08:59:19;94069.44;;;18.74;50.51
9774;BME280;4926;42.670;23.316;2023-04-21T09:02:08;94050.47;;;18.86;49.81
9774;BME280;4926;42.670;23.316;2023-04-21T09:04:40;94049.19;;;19.15;49.79
9774;BME280;4926;42.670;23.316;2023-04-21T09:07:08;94037.03;;;19.40;48.93
9774;BME280;4926;42.670;23.316;2023-04-21T09:09:54;94030.72;;;19.71;48.62
9774;BME280;4926;42.670;23.316;2023-04-21T09:12:22;94036.72;;;19.61;48.36
9774;BME280;4926;42.670;23.316;2023-04-21T09:14:49;94030.88;;;19.78;47.83
9774;BME280;4926;42.670;23.316;2023-04-21T09:17:17;94014.59;;;19.74;47.59
9774;BME280;4926;42.670;23.316;2023-04-21T09:19:44;94013.94;;;19.81;47.42
9774;BME280;4926;42.670;23.316;2023-04-21T09:22:15;93999.78;;;20.10;47.33
9774;BME280;4926;42.670;23.316;2023-04-21T09:24:46;94003.44;;;20.40;46.20
9774;BME280;4926;42.670;23.316;2023-04-21T09:27:14;93992.66;;;20.92;44.84
9774;BME280;4926;42.670;23.316;2023-04-21T09:29:44;93961.91;;;21.00;43.91
9774;BME280;4926;42.670;23.316;2023-04-21T09:32:16;93983.56;;;20.52;44.30
9774;BME280;4926;42.670;23.316;2023-04-21T09:34:44;93970.13;;;19.91;44.51
9774;BME280;4926;42.670;23.316;2023-04-21T09:37:15;93977.84;;;19.51;45.89
9774;BME280;4926;42.670;23.316;2023-04-21T09:39:45;93981.78;;;19.95;45.71
9774;BME280;4926;42.670;23.316;2023-04-21T09:42:12;93982.72;;;20.25;45.25
9774;BME280;4926;42.670;23.316;2023-04-21T09:44:39;93966.81;;;20.20;44.44
9774;BME280;4926;42.670;23.316;2023-04-21T09:47:09;93954.19;;;20.50;43.74
9774;BME280;4926;42.670;23.316;2023-04-21T09:49:38;93965.75;;;20.06;43.88
9774;BME280;4926;42.670;23.316;2023-04-21T09:52:09;93972.56;;;19.96;44.98
9774;BME280;4926;42.670;23.316;2023-04-21T09:54:45;93971.25;;;19.67;45.55
9774;BME280;4926;42.670;23.316;2023-04-21T09:57:19;93971.78;;;19.35;46.19
9774;BME280;4926;42.670;23.316;2023-04-21T09:59:50;93990.59;;;19.16;46.86
9774;BME280;4926;42.670;23.316;2023-04-21T10:02:23;93997.91;;;18.96;46.87
9774;BME280;4926;42.670;23.316;2023-04-21T10:04:50;93994.09;;;18.81;46.94
9774;BME280;4926;42.670;23.316;2023-04-21T10:07:17;93986.84;;;18.66;47.55
9774;BME280;4926;42.670;23.316;2023-04-21T10:09:50;93983.50;;;18.73;47.17
9774;BME280;4926;42.670;23.316;2023-04-21T10:12:18;93986.13;;;18.69;46.70
9774;BME280;4926;42.670;23.316;2023-04-21T10:14:45;93967.97;;;18.66;46.45
9774;BME280;4926;42.670;23.316;2023-04-21T10:17:11;93976.13;;;19.05;46.29
9774;BME280;4926;42.670;23.316;2023-04-21T10:19:47;93960.50;;;19.14;45.51
9774;BME280;4926;42.670;23.316;2023-04-21T10:22:25;93979.50;;;18.67;48.00
9774;BME280;4926;42.670;23.316;2023-04-21T10:24:56;93962.44;;;18.44;48.51
9774;BME280;4926;42.670;23.316;2023-04-21T10:27:34;93994.63;;;18.09;49.88
9774;BME280;4926;42.670;23.316;2023-04-21T10:30:17;93987.84;;;17.84;50.14
9774;BME280;4926;42.670;23.316;2023-04-21T10:32:43;94003.06;;;18.08;49.94
9774;BME280;4926;42.670;23.316;2023-04-21T10:35:12;93990.38;;;17.93;49.78
9774;BME280;4926;42.670;23.316;2023-04-21T10:37:40;93997.16;;;18.02;49.35
9774;BME280;4926;42.670;23.316;2023-04-21T10:40:32;93973.69;;;18.34;48.28
9774;BME280;4926;42.670;23.316;2023-04-21T10:43:01;93984.22;;;18.54;48.08
9774;BME280;4926;42.670;23.316;2023-04-21T10:45:29;93977.69;;;18.40;48.21
9774;BME280;4926;42.670;23.316;2023-04-21T10:47:58;93992.56;;;18.18;48.92
9774;BME280;4926;42.670;23.316;2023-04-21T10:50:30;93979.34;;;17.82;49.45
9774;BME280;4926;42.670;23.316;2023-04-21T10:53:07;93996.28;;;17.83;49.83
9774;BME280;4926;42.670;23.316;2023-04-21T10:55:37;93993.25;;;17.84;49.77
9774;BME280;4926;42.670;23.316;2023-04-21T10:58:07;94001.94;;;17.93;48.78
9774;BME280;4926;42.670;23.316;2023-04-21T11:00:35;93989.41;;;17.85;48.99
9774;BME280;4926;42.670;23.316;2023-04-21T11:03:04;93986.38;;;18.02;48.71
9774;BME280;4926;42.670;23.316;2023-04-21T11:05:35;93978.94;;;18.42;47.71
9774;BME280;4926;42.670;23.316;2023-04-21T11:08:08;93971.53;;;18.39;47.37
9774;BME280;4926;42.670;23.316;2023-04-21T11:10:44;93964.66;;;18.57;46.81
9774;BME280;4926;42.670;23.316;2023-04-21T11:13:14;93957.53;;;19.19;45.76
9774;BME280;4926;42.670;23.316;2023-04-21T11:15:41;93955.19;;;19.97;44.04
9774;BME280;4926;42.670;23.316;2023-04-21T11:18:07;93947.16;;;20.23;43.68
9774;BME280;4926;42.670;23.316;2023-04-21T11:20:39;93938.00;;;20.80;43.58
9774;BME280;4926;42.670;23.316;2023-04-21T11:23:06;93939.50;;;20.51;43.64
9774;BME280;4926;42.670;23.316;2023-04-21T11:25:33;93930.31;;;19.88;43.77
9774;BME280;4926;42.670;23.316;2023-04-21T11:28:04;93952.22;;;19.41;45.74
9774;BME280;4926;42.670;23.316;2023-04-21T11:30:34;93957.69;;;19.26;45.59
9774;BME280;4926;42.670;23.316;2023-04-21T11:33:03;93938.28;;;19.01;44.62
9774;BME280;4926;42.670;23.316;2023-04-21T11:35:30;93929.31;;;19.16;44.33
9774;BME280;4926;42.670;23.316;2023-04-21T11:37:57;93951.47;;;19.63;44.68
9774;BME280;4926;42.670;23.316;2023-04-21T11:40:24;93956.25;;;19.51;46.06
9774;BME280;4926;42.670;23.316;2023-04-21T11:42:53;93958.66;;;19.18;46.67
9774;BME280;4926;42.670;23.316;2023-04-21T11:45:21;93965.59;;;18.80;48.21
9774;BME280;4926;42.670;23.316;2023-04-21T11:47:50;93969.25;;;18.72;48.48
9774;BME280;4926;42.670;23.316;2023-04-21T11:50:32;93969.94;;;18.69;47.37
9774;BME280;4926;42.670;23.316;2023-04-21T11:53:01;93962.53;;;18.47;47.24
9774;BME280;4926;42.670;23.316;2023-04-21T11:55:33;93962.06;;;18.30;47.42
9774;BME280;4926;42.670;23.316;2023-04-21T11:58:03;93959.97;;;17.92;47.30
9774;BME280;4926;42.670;23.316;2023-04-21T12:00:32;93961.03;;;18.03;46.36
9774;BME280;4926;42.670;23.316;2023-04-21T12:03:07;93955.63;;;18.19;45.83
9774;BME280;4926;42.670;23.316;2023-04-21T12:05:34;93949.19;;;18.23;44.85
9774;BME280;4926;42.670;23.316;2023-04-21T12:08:01;93961.09;;;18.22;44.87
9774;BME280;4926;42.670;23.316;2023-04-21T12:10:29;93956.59;;;18.26;44.08
9774;BME280;4926;42.670;23.316;2023-04-21T12:12:56;93957.19;;;18.04;44.38
9774;BME280;4926;42.670;23.316;2023-04-21T12:15:23;93962.56;;;17.89;46.22
9774;BME280;4926;42.670;23.316;2023-04-21T12:17:52;93957.72;;;18.25;46.15
9774;BME280;4926;42.670;23.316;2023-04-21T12:20:20;93947.75;;;18.76;44.84
9774;BME280;4926;42.670;23.316;2023-04-21T12:22:47;93957.38;;;18.92;44.88
9774;BME280;4926;42.670;23.316;2023-04-21T12:25:14;93954.63;;;19.46;44.43
9774;BME280;4926;42.670;23.316;2023-04-21T12:27:49;93964.50;;;19.39;44.47
9774;BME280;4926;42.670;23.316;2023-04-21T12:30:18;93943.19;;;19.53;43.05
9774;BME280;4926;42.670;23.316;2023-04-21T12:32:45;93937.44;;;19.77;42.47
9774;BME280;4926;42.670;23.316;2023-04-21T12:35:14;93931.34;;;19.80;42.77
9774;BME280;4926;42.670;23.316;2023-04-21T12:37:40;93942.25;;;19.64;42.99
9774;BME280;4926;42.670;23.316;2023-04-21T12:40:10;93940.28;;;19.42;43.74
9774;BME280;4926;42.670;23.316;2023-04-21T12:42:40;93944.59;;;19.66;44.06
9774;BME280;4926;42.670;23.316;2023-04-21T12:45:07;93935.16;;;20.21;43.01
9774;BME280;4926;42.670;23.316;2023-04-21T12:47:40;93933.66;;;20.75;42.59
9774;BME280;4926;42.670;23.316;2023-04-21T12:50:07;93927.34;;;21.20;41.82
9774;BME280;4926;42.670;23.316;2023-04-21T12:52:36;93911.84;;;21.87;40.51
9774;BME280;4926;42.670;23.316;2023-04-21T12:55:03;93910.03;;;21.98;40.28
9774;BME280;4926;42.670;23.316;2023-04-21T12:57:30;93917.09;;;21.73;41.20
9774;BME280;4926;42.670;23.316;2023-04-21T12:59:59;93928.25;;;20.75;42.62
9774;BME280;4926;42.670;23.316;2023-04-21T13:02:28;93929.84;;;20.05;43.64
9774;BME280;4926;42.670;23.316;2023-04-21T13:05:01;93938.53;;;19.31;44.95
9774;BME280;4926;42.670;23.316;2023-04-21T13:07:29;93944.88;;;19.04;45.06
9774;BME280;4926;42.670;23.316;2023-04-21T13:10:00;93937.34;;;19.13;44.92
9774;BME280;4926;42.670;23.316;2023-04-21T13:12:27;93938.16;;;19.32;44.60
9774;BME280;4926;42.670;23.316;2023-04-21T13:14:53;93932.91;;;19.39;44.62
9774;BME280;4926;42.670;23.316;2023-04-21T13:17:20;93925.56;;;19.59;44.13